sensor_id;sensor_type;location;lat;lon;timestamp;temperature;humidity
1165;DHT22;571;50.930;6.926;2022-11-15T03:46:13;12.40;99.90
1165;DHT22;571;50.930;6.926;2022-11-15T03:48:44;12.40;99.90
1165;DHT22;571;50.930;6.926;2022-11-15T03:51:13;12.40;99.90
1165;DHT22;571;50.930;6.926;2022-11-15T03:53:41;12.40;99.90
1165;DHT22;571;50.930;6.926;2022-11-15T03:56:07;12.40;99.90
1165;DHT22;571;50.930;6.926;2022-11-15T03:58:40;12.50;99.90
1165;DHT22;571;50.930;6.926;2022-11-15T04:01:08;12.50;99.90
1165;DHT22;571;50.930;6.926;2022-11-15T04:03:35;12.60;99.90
1165;DHT22;571;50.930;6.926;2022-11-15T04:06:02;12.50;99.90
1165;DHT22;571;50.930;6.926;2022-11-15T04:08:29;12.50;99.90
1165;DHT22;571;50.930;6.926;2022-11-15T04:10:55;12.50;99.90
1165;DHT22;571;50.930;6.926;2022-11-15T04:13:22;12.50;99.90
1165;DHT22;571;50.930;6.926;2022-11-15T04:15:49;12.50;99.90
1165;DHT22;571;50.930;6.926;2022-11-15T04:18:17;12.60;99.90
1165;DHT22;571;50.930;6.926;2022-11-15T04:20:43;12.60;99.90
1165;DHT22;571;50.930;6.926;2022-11-15T04:23:27;12.60;99.90
1165;DHT22;571;50.930;6.926;2022-11-15T04:26:15;12.50;99.90
1165;DHT22;571;50.930;6.926;2022-11-15T04:28:42;12.50;99.90
1165;DHT22;571;50.930;6.926;2022-11-15T04:31:23;12.40;99.90
1165;DHT22;571;50.930;6.926;2022-11-15T04:33:51;12.50;99.90
1165;DHT22;571;50.930;6.926;2022-11-15T04:36:18;12.50;99.90
1165;DHT22;571;50.930;6.926;2022-11-15T04:39:02;12.60;99.90
1165;DHT22;571;50.930;6.926;2022-11-15T04:41:29;12.60;99.90
1165;DHT22;571;50.930;6.926;2022-11-15T04:43:56;12.60;99.90
1165;DHT22;571;50.930;6.926;2022-11-15T04:46:23;12.60;99.90
1165;DHT22;571;50.930;6.926;2022-11-15T04:48:52;12.60;99.90
1165;DHT22;571;50.930;6.926;2022-11-15T04:51:19;12.80;99.90
1165;DHT22;571;50.930;6.926;2022-11-15T04:53:46;12.70;99.90
1165;DHT22;571;50.930;6.926;2022-11-15T04:56:12;12.70;99.90
1165;DHT22;571;50.930;6.926;2022-11-15T04:58:39;12.80;99.90
1165;DHT22;571;50.930;6.926;2022-11-15T05:01:07;12.80;99.90
1165;DHT22;571;50.930;6.926;2022-11-15T05:03:34;12.80;99.90
1165;DHT22;571;50.930;6.926;2022-11-15T05:06:20;12.80;99.90
1165;DHT22;571;50.930;6.926;2022-11-15T05:08:46;12.70;99.90
1165;DHT22;571;50.930;6.926;2022-11-15T05:11:13;12.80;99.90
1165;DHT22;571;50.930;6.926;2022-11-15T05:13:40;12.80;99.90
1165;DHT22;571;50.930;6.926;2022-11-15T05:16:06;12.70;99.90
1165;DHT22;571;50.930;6.926;2022-11-15T05:18:33;12.60;99.90
1165;DHT22;571;50.930;6.926;2022-11-15T05:21:03;12.60;99.90
1165;DHT22;571;50.930;6.926;2022-11-15T05:23:31;12.60;99.90
1165;DHT22;571;50.930;6.926;2022-11-15T05:25:58;12.60;99.90
1165;DHT22;571;50.930;6.926;2022-11-15T05:28:25;12.60;99.90
1165;DHT22;571;50.930;6.926;2022-11-15T05:30:52;12.60;99.90
1165;DHT22;571;50.930;6.926;2022-11-15T05:33:19;12.60;99.90
1165;DHT22;571;50.930;6.926;2022-11-15T05:35:50;12.60;99.90
1165;DHT22;571;50.930;6.926;2022-11-15T05:38:21;12.60;99.90
1165;DHT22;571;50.930;6.926;2022-11-15T05:40:49;12.60;99.90
1165;DHT22;571;50.930;6.926;2022-11-15T05:43:16;12.60;99.90
1165;DHT22;571;50.930;6.926;2022-11-15T05:45:42;12.60;99.90
1165;DHT22;571;50.930;6.926;2022-11-15T05:48:10;12.70;99.90
1165;DHT22;571;50.930;6.926;2022-11-15T05:50:38;12.70;99.90
1165;DHT22;571;50.930;6.926;2022-11-15T05:53:07;12.50;99.90
1165;DHT22;571;50.930;6.926;2022-11-15T05:55:34;12.50;99.90
1165;DHT22;571;50.930;6.926;2022-11-15T05:58:02;12.50;99.90
1165;DHT22;571;50.930;6.926;2022-11-15T06:00:29;12.30;99.90
1165;DHT22;571;50.930;6.926;2022-11-15T06:02:56;12.30;99.90
1165;DHT22;571;50.930;6.926;2022-11-15T06:05:22;12.30;99.90
1165;DHT22;571;50.930;6.926;2022-11-15T06:07:49;12.20;99.90
1165;DHT22;571;50.930;6.926;2022-11-15T06:10:16;12.20;99.90
1165;DHT22;571;50.930;6.926;2022-11-15T06:12:43;12.30;99.90
1165;DHT22;571;50.930;6.926;2022-11-15T06:15:11;12.20;99.90
1165;DHT22;571;50.930;6.926;2022-11-15T06:17:38;12.20;99.90
1165;DHT22;571;50.930;6.926;2022-11-15T06:20:05;12.10;99.90
1165;DHT22;571;50.930;6.926;2022-11-15T06:22:32;12.10;99.90
1165;DHT22;571;50.930;6.926;2022-11-15T06:24:59;12.10;99.90
1165;DHT22;571;50.930;6.926;2022-11-15T06:27:25;12.10;99.90
1165;DHT22;571;50.930;6.926;2022-11-15T06:29:52;12.10;99.90
1165;DHT22;571;50.930;6.926;2022-11-15T06:32:20;12.00;99.90
1165;DHT22;571;50.930;6.926;2022-11-15T06:34:47;12.00;99.90
1165;DHT22;571;50.930;6.926;2022-11-15T06:37:14;11.90;99.90
1165;DHT22;571;50.930;6.926;2022-11-15T06:39:40;11.90;99.90
1165;DHT22;571;50.930;6.926;2022-11-15T06:42:08;11.90;99.90
1165;DHT22;571;50.930;6.926;2022-11-15T06:44:35;11.90;99.90
1165;DHT22;571;50.930;6.926;2022-11-15T06:47:02;12.00;99.90
1165;DHT22;571;50.930;6.926;2022-11-15T06:49:30;11.90;99.90
1165;DHT22;571;50.930;6.926;2022-11-15T06:51:56;11.90;99.90
1165;DHT22;571;50.930;6.926;2022-11-15T06:54:23;11.80;99.90
1165;DHT22;571;50.930;6.926;2022-11-15T06:56:50;11.90;99.90
1165;DHT22;571;50.930;6.926;2022-11-15T06:59:16;11.80;99.90
1165;DHT22;571;50.930;6.926;2022-11-15T07:01:43;11.80;99.90
1165;DHT22;571;50.930;6.926;2022-11-15T07:04:10;11.70;99.90
1165;DHT22;571;50.930;6.926;2022-11-15T07:06:38;11.60;99.90
1165;DHT22;571;50.930;6.926;2022-11-15T07:09:04;11.70;99.90
1165;DHT22;571;50.930;6.926;2022-11-15T07:11:33;11.60;99.90
1165;DHT22;571;50.930;6.926;2022-11-15T07:13:59;11.70;99.90
1165;DHT22;571;50.930;6.926;2022-11-15T07:16:27;11.70;99.90
1165;DHT22;571;50.930;6.926;2022-11-15T07:18:53;11.80;99.90
1165;DHT22;571;50.930;6.926;2022-11-15T07:21:20;11.70;99.90
1165;DHT22;571;50.930;6.926;2022-11-15T07:23:48;11.80;99.90
1165;DHT22;571;50.930;6.926;2022-11-15T07:26:15;11.90;99.90
1165;DHT22;571;50.930;6.926;2022-11-15T07:28:41;11.80;99.90
1165;DHT22;571;50.930;6.926;2022-11-15T07:31:08;11.70;99.90
1165;DHT22;571;50.930;6.926;2022-11-15T07:33:35;11.70;99.90
1165;DHT22;571;50.930;6.926;2022-11-15T07:36:03;11.70;99.90
1165;DHT22;571;50.930;6.926;2022-11-15T07:38:31;11.70;99.90
1165;DHT22;571;50.930;6.926;2022-11-15T07:41:01;11.70;99.90
1165;DHT22;571;50.930;6.926;2022-11-15T07:43:28;11.70;99.90
1165;DHT22;571;50.930;6.926;2022-11-15T07:45:55;11.80;99.90
1165;DHT22;571;50.930;6.926;2022-11-15T07:48:22;11.80;99.90
1165;DHT22;571;50.930;6.926;2022-11-15T07:50:49;11.90;99.90
1165;DHT22;571;50.930;6.926;2022-11-15T07:53:17;11.90;99.90
1165;DHT22;571;50.930;6.926;2022-11-15T07:55:43;11.90;99.90
1165;DHT22;571;50.930;6.926;2022-11-15T07:58:13;12.00;99.90
1165;DHT22;571;50.930;6.926;2022-11-15T08:00:40;12.10;99.90
1165;DHT22;571;50.930;6.926;2022-11-15T08:03:08;12.10;99.90
1165;DHT22;571;50.930;6.926;2022-11-15T08:05:37;12.10;99.90
1165;DHT22;571;50.930;6.926;2022-11-15T08:08:04;12.20;99.90
1165;DHT22;571;50.930;6.926;2022-11-15T08:10:32;12.10;99.90
1165;DHT22;571;50.930;6.926;2022-11-15T08:12:59;12.20;99.90
1165;DHT22;571;50.930;6.926;2022-11-15T08:15:28;12.20;99.90
1165;DHT22;571;50.930;6.926;2022-11-15T08:17:55;12.10;99.90
1165;DHT22;571;50.930;6.926;2022-11-15T08:20:22;12.10;99.90
1165;DHT22;571;50.930;6.926;2022-11-15T08:22:49;12.10;99.90
1165;DHT22;571;50.930;6.926;2022-11-15T08:25:16;12.10;99.90
1165;DHT22;571;50.930;6.926;2022-11-15T08:27:43;12.20;99.90
1165;DHT22;571;50.930;6.926;2022-11-15T08:30:11;12.20;99.90
1165;DHT22;571;50.930;6.926;2022-11-15T08:32:40;12.20;99.90
1165;DHT22;571;50.930;6.926;2022-11-15T08:35:07;12.20;99.90
1165;DHT22;571;50.930;6.926;2022-11-15T08:37:34;12.30;99.90
1165;DHT22;571;50.930;6.926;2022-11-15T08:40:01;12.30;99.90
1165;DHT22;571;50.930;6.926;2022-11-15T08:42:28;12.30;99.90
1165;DHT22;571;50.930;6.926;2022-11-15T08:44:54;12.30;99.90
1165;DHT22;571;50.930;6.926;2022-11-15T08:47:21;12.40;99.90
1165;DHT22;571;50.930;6.926;2022-11-15T08:49:50;12.40;99.90
1165;DHT22;571;50.930;6.926;2022-11-15T08:52:16;12.40;99.90
1165;DHT22;571;50.930;6.926;2022-11-15T08:54:43;12.50;99.90
1165;DHT22;571;50.930;6.926;2022-11-15T08:57:10;12.60;99.90
1165;DHT22;571;50.930;6.926;2022-11-15T08:59:36;12.60;99.90
1165;DHT22;571;50.930;6.926;2022-11-15T09:02:04;12.70;99.90
1165;DHT22;571;50.930;6.926;2022-11-15T09:04:31;12.80;99.90
1165;DHT22;571;50.930;6.926;2022-11-15T09:06:59;12.80;99.90
1165;DHT22;571;50.930;6.926;2022-11-15T09:09:25;12.70;99.90
1165;DHT22;571;50.930;6.926;2022-11-15T09:11:52;12.70;99.90
1165;DHT22;571;50.930;6.926;2022-11-15T09:14:19;12.70;99.90
1165;DHT22;571;50.930;6.926;2022-11-15T09:16:45;12.70;99.90
1165;DHT22;571;50.930;6.926;2022-11-15T09:19:12;12.70;99.90
1165;DHT22;571;50.930;6.926;2022-11-15T09:21:40;12.70;99.90
1165;DHT22;571;50.930;6.926;2022-11-15T09:24:08;12.70;99.90
1165;DHT22;571;50.930;6.926;2022-11-15T09:26:35;12.80;99.90
1165;DHT22;571;50.930;6.926;2022-11-15T09:29:01;13.00;99.60
1165;DHT22;571;50.930;6.926;2022-11-15T09:31:28;13.00;99.30
1165;DHT22;571;50.930;6.926;2022-11-15T09:33:55;13.00;99.50
1165;DHT22;571;50.930;6.926;2022-11-15T09:36:22;13.00;99.40
1165;DHT22;571;50.930;6.926;2022-11-15T09:38:49;13.10;99.00
1165;DHT22;571;50.930;6.926;2022-11-15T09:44:32;13.10;99.00
1165;DHT22;571;50.930;6.926;2022-11-15T09:47:17;13.20;99.10
1165;DHT22;571;50.930;6.926;2022-11-15T09:49:52;13.20;99.00
1165;DHT22;571;50.930;6.926;2022-11-15T09:52:19;13.30;98.70
1165;DHT22;571;50.930;6.926;2022-11-15T09:54:49;13.40;98.20
1165;DHT22;571;50.930;6.926;2022-11-15T09:57:31;13.30;97.50
1165;DHT22;571;50.930;6.926;2022-11-15T10:00:12;13.30;98.30
1165;DHT22;571;50.930;6.926;2022-11-15T10:02:50;13.20;97.90
1165;DHT22;571;50.930;6.926;2022-11-15T10:05:20;13.40;97.50
1165;DHT22;571;50.930;6.926;2022-11-15T10:07:55;13.30;97.90
1165;DHT22;571;50.930;6.926;2022-11-15T10:10:27;13.40;98.10
1165;DHT22;571;50.930;6.926;2022-11-15T10:12:57;13.40;96.30
1165;DHT22;571;50.930;6.926;2022-11-15T10:15:25;13.50;96.90
1165;DHT22;571;50.930;6.926;2022-11-15T10:18:12;13.50;97.00
1165;DHT22;571;50.930;6.926;2022-11-15T10:20:46;13.50;96.60
1165;DHT22;571;50.930;6.926;2022-11-15T10:23:16;13.50;96.20
1165;DHT22;571;50.930;6.926;2022-11-15T10:25:43;13.60;96.30
1165;DHT22;571;50.930;6.926;2022-11-15T10:28:14;13.60;96.60
1165;DHT22;571;50.930;6.926;2022-11-15T10:30:43;13.60;95.00
1165;DHT22;571;50.930;6.926;2022-11-15T10:33:15;13.60;94.90
1165;DHT22;571;50.930;6.926;2022-11-15T10:35:43;13.70;95.00
1165;DHT22;571;50.930;6.926;2022-11-15T10:38:11;13.70;94.30
1165;DHT22;571;50.930;6.926;2022-11-15T10:40:40;13.70;93.90
1165;DHT22;571;50.930;6.926;2022-11-15T10:43:16;13.80;93.60
1165;DHT22;571;50.930;6.926;2022-11-15T10:45:44;13.90;94.50
1165;DHT22;571;50.930;6.926;2022-11-15T10:48:23;13.90;94.10
1165;DHT22;571;50.930;6.926;2022-11-15T10:50:50;13.90;93.20
1165;DHT22;571;50.930;6.926;2022-11-15T10:53:27;14.00;93.10
1165;DHT22;571;50.930;6.926;2022-11-15T10:56:00;14.00;91.90
1165;DHT22;571;50.930;6.926;2022-11-15T10:58:34;14.00;92.50
1165;DHT22;571;50.930;6.926;2022-11-15T11:01:13;14.10;92.00
1165;DHT22;571;50.930;6.926;2022-11-15T11:03:42;14.10;92.30
1165;DHT22;571;50.930;6.926;2022-11-15T11:06:12;14.20;92.10
1165;DHT22;571;50.930;6.926;2022-11-15T11:08:39;14.20;91.60
1165;DHT22;571;50.930;6.926;2022-11-15T11:11:06;14.20;92.90
1165;DHT22;571;50.930;6.926;2022-11-15T11:13:36;14.20;92.60
1165;DHT22;571;50.930;6.926;2022-11-15T11:16:18;14.30;92.80
1165;DHT22;571;50.930;6.926;2022-11-15T11:18:52;14.30;92.00
1165;DHT22;571;50.930;6.926;2022-11-15T11:21:26;14.40;93.00
1165;DHT22;571;50.930;6.926;2022-11-15T11:23:56;14.50;92.60
1165;DHT22;571;50.930;6.926;2022-11-15T11:26:35;14.50;92.20
1165;DHT22;571;50.930;6.926;2022-11-15T11:29:19;14.60;91.10
1165;DHT22;571;50.930;6.926;2022-11-15T11:31:52;14.60;91.20
1165;DHT22;571;50.930;6.926;2022-11-15T11:34:34;14.70;91.60
1165;DHT22;571;50.930;6.926;2022-11-15T11:37:11;14.70;91.10
1165;DHT22;571;50.930;6.926;2022-11-15T11:39:45;14.70;91.20
1165;DHT22;571;50.930;6.926;2022-11-15T11:42:24;14.70;90.40
1165;DHT22;571;50.930;6.926;2022-11-15T11:44:59;14.70;91.20
1165;DHT22;571;50.930;6.926;2022-11-15T11:47:31;14.80;91.30
1165;DHT22;571;50.930;6.926;2022-11-15T11:50:00;14.90;91.20
1165;DHT22;571;50.930;6.926;2022-11-15T11:52:32;15.00;91.30
1165;DHT22;571;50.930;6.926;2022-11-15T11:55:05;15.00;90.40
1165;DHT22;571;50.930;6.926;2022-11-15T11:57:44;15.10;90.50
1165;DHT22;571;50.930;6.926;2022-11-15T12:00:19;15.10;91.10
1165;DHT22;571;50.930;6.926;2022-11-15T12:02:55;15.20;90.90
1165;DHT22;571;50.930;6.926;2022-11-15T12:05:28;15.20;89.90
1165;DHT22;571;50.930;6.926;2022-11-15T12:08:26;15.20;91.00
1165;DHT22;571;50.930;6.926;2022-11-15T12:11:01;15.20;90.90
1165;DHT22;571;50.930;6.926;2022-11-15T12:13:30;15.10;90.90
1165;DHT22;571;50.930;6.926;2022-11-15T12:16:08;15.10;90.70
1165;DHT22;571;50.930;6.926;2022-11-15T12:18:36;15.20;90.80
1165;DHT22;571;50.930;6.926;2022-11-15T12:21:07;15.10;89.70
1165;DHT22;571;50.930;6.926;2022-11-15T12:23:40;15.20;91.20
1165;DHT22;571;50.930;6.926;2022-11-15T12:26:11;15.30;91.00
1165;DHT22;571;50.930;6.926;2022-11-15T12:28:46;15.40;91.00
1165;DHT22;571;50.930;6.926;2022-11-15T12:31:20;15.60;91.50
1165;DHT22;571;50.930;6.926;2022-11-15T12:33:49;15.70;91.20
1165;DHT22;571;50.930;6.926;2022-11-15T12:36:32;15.70;90.30
1165;DHT22;571;50.930;6.926;2022-11-15T12:39:02;15.90;91.10
1165;DHT22;571;50.930;6.926;2022-11-15T12:41:31;15.90;90.40
1165;DHT22;571;50.930;6.926;2022-11-15T12:43:58;15.90;90.90
1165;DHT22;571;50.930;6.926;2022-11-15T12:47:01;15.90;90.20
1165;DHT22;571;50.930;6.926;2022-11-15T12:49:45;15.90;90.80
1165;DHT22;571;50.930;6.926;2022-11-15T12:52:12;15.90;90.50
1165;DHT22;571;50.930;6.926;2022-11-15T12:54:57;15.80;90.70
1165;DHT22;571;50.930;6.926;2022-11-15T12:57:38;15.90;91.20
1165;DHT22;571;50.930;6.926;2022-11-15T13:03:34;15.80;91.20
1165;DHT22;571;50.930;6.926;2022-11-15T13:06:06;15.70;90.60
1165;DHT22;571;50.930;6.926;2022-11-15T13:08:46;15.70;91.40
1165;DHT22;571;50.930;6.926;2022-11-15T13:11:52;15.80;91.00
1165;DHT22;571;50.930;6.926;2022-11-15T13:14:47;15.80;91.30
1165;DHT22;571;50.930;6.926;2022-11-15T13:17:35;15.90;91.40
1165;DHT22;571;50.930;6.926;2022-11-15T13:20:28;15.90;91.30
1165;DHT22;571;50.930;6.926;2022-11-15T13:23:02;15.90;90.80
1165;DHT22;571;50.930;6.926;2022-11-15T13:26:02;15.80;91.00
1165;DHT22;571;50.930;6.926;2022-11-15T13:28:33;15.80;91.20
1165;DHT22;571;50.930;6.926;2022-11-15T13:31:01;15.80;91.80
1165;DHT22;571;50.930;6.926;2022-11-15T13:33:31;15.70;92.30
1165;DHT22;571;50.930;6.926;2022-11-15T13:36:03;15.70;92.60
1165;DHT22;571;50.930;6.926;2022-11-15T13:38:32;15.80;92.60
1165;DHT22;571;50.930;6.926;2022-11-15T13:41:10;15.90;92.60
1165;DHT22;571;50.930;6.926;2022-11-15T13:43:37;15.80;92.70
1165;DHT22;571;50.930;6.926;2022-11-15T13:46:06;15.80;92.90
1165;DHT22;571;50.930;6.926;2022-11-15T13:48:33;15.80;93.20
1165;DHT22;571;50.930;6.926;2022-11-15T13:51:04;15.80;93.10
1165;DHT22;571;50.930;6.926;2022-11-15T13:53:32;15.70;93.30
1165;DHT22;571;50.930;6.926;2022-11-15T13:56:00;15.70;93.50
1165;DHT22;571;50.930;6.926;2022-11-15T13:58:29;15.60;93.50
1165;DHT22;571;50.930;6.926;2022-11-15T14:01:00;15.70;93.30
1165;DHT22;571;50.930;6.926;2022-11-15T14:03:29;15.60;93.60
1165;DHT22;571;50.930;6.926;2022-11-15T14:06:05;15.50;93.70
1165;DHT22;571;50.930;6.926;2022-11-15T14:08:33;15.40;94.00
1165;DHT22;571;50.930;6.926;2022-11-15T14:11:09;15.50;94.20
1165;DHT22;571;50.930;6.926;2022-11-15T14:13:36;15.50;94.00
1165;DHT22;571;50.930;6.926;2022-11-15T14:16:13;15.60;93.80
1165;DHT22;571;50.930;6.926;2022-11-15T14:18:43;15.50;93.70
1165;DHT22;571;50.930;6.926;2022-11-15T14:21:12;15.50;94.00
1165;DHT22;571;50.930;6.926;2022-11-15T14:23:38;15.40;94.10
1165;DHT22;571;50.930;6.926;2022-11-15T14:26:05;15.40;94.30
1165;DHT22;571;50.930;6.926;2022-11-15T14:28:33;15.40;94.40
1165;DHT22;571;50.930;6.926;2022-11-15T14:31:10;15.30;94.30
1165;DHT22;571;50.930;6.926;2022-11-15T14:33:38;15.40;94.50
1165;DHT22;571;50.930;6.926;2022-11-15T14:36:10;15.40;94.50
1165;DHT22;571;50.930;6.926;2022-11-15T14:38:39;15.20;94.80
1165;DHT22;571;50.930;6.926;2022-11-15T14:41:08;15.30;94.70
1165;DHT22;571;50.930;6.926;2022-11-15T14:43:36;15.40;94.70
1165;DHT22;571;50.930;6.926;2022-11-15T14:46:03;15.40;94.50
1165;DHT22;571;50.930;6.926;2022-11-15T14:48:30;15.40;94.60
1165;DHT22;571;50.930;6.926;2022-11-15T14:50:57;15.50;94.50
1165;DHT22;571;50.930;6.926;2022-11-15T14:53:24;15.60;94.40
1165;DHT22;571;50.930;6.926;2022-11-15T14:55:52;15.60;94.20
1165;DHT22;571;50.930;6.926;2022-11-15T14:58:19;15.50;94.60
1165;DHT22;571;50.930;6.926;2022-11-15T15:00:45;15.40;94.60
1165;DHT22;571;50.930;6.926;2022-11-15T15:03:12;15.40;94.70
1165;DHT22;571;50.930;6.926;2022-11-15T15:05:40;15.40;94.80
1165;DHT22;571;50.930;6.926;2022-11-15T15:08:08;15.40;94.50
1165;DHT22;571;50.930;6.926;2022-11-15T15:10:37;15.40;94.90
1165;DHT22;571;50.930;6.926;2022-11-15T15:13:08;15.40;94.70
1165;DHT22;571;50.930;6.926;2022-11-15T15:15:37;15.30;95.20
1165;DHT22;571;50.930;6.926;2022-11-15T15:18:05;15.40;94.90
1165;DHT22;571;50.930;6.926;2022-11-15T15:20:34;15.30;94.90
1165;DHT22;571;50.930;6.926;2022-11-15T15:23:01;15.30;95.00
1165;DHT22;571;50.930;6.926;2022-11-15T15:25:31;15.20;95.00
1165;DHT22;571;50.930;6.926;2022-11-15T15:27:59;15.30;94.90
1165;DHT22;571;50.930;6.926;2022-11-15T15:30:29;15.40;94.60
1165;DHT22;571;50.930;6.926;2022-11-15T15:32:56;15.30;94.90
1165;DHT22;571;50.930;6.926;2022-11-15T15:35:23;15.30;95.00
1165;DHT22;571;50.930;6.926;2022-11-15T15:37:50;15.30;95.00
1165;DHT22;571;50.930;6.926;2022-11-15T15:40:19;15.20;95.10
1165;DHT22;571;50.930;6.926;2022-11-15T15:42:46;15.10;95.10
1165;DHT22;571;50.930;6.926;2022-11-15T15:45:13;15.10;95.20
1165;DHT22;571;50.930;6.926;2022-11-15T15:47:43;15.10;95.40
1165;DHT22;571;50.930;6.926;2022-11-15T15:50:20;15.00;95.50
1165;DHT22;571;50.930;6.926;2022-11-15T15:52:47;15.00;95.60
1165;DHT22;571;50.930;6.926;2022-11-15T15:55:14;15.10;95.40
1165;DHT22;571;50.930;6.926;2022-11-15T15:57:41;15.10;95.40
1165;DHT22;571;50.930;6.926;2022-11-15T16:00:09;15.00;95.30
1165;DHT22;571;50.930;6.926;2022-11-15T16:02:36;15.00;95.60
1165;DHT22;571;50.930;6.926;2022-11-15T16:05:05;14.80;96.00
1165;DHT22;571;50.930;6.926;2022-11-15T16:07:32;14.90;95.90
1165;DHT22;571;50.930;6.926;2022-11-15T16:09:58;14.80;95.90
1165;DHT22;571;50.930;6.926;2022-11-15T16:12:29;14.90;95.90
1165;DHT22;571;50.930;6.926;2022-11-15T16:14:56;14.90;96.00
1165;DHT22;571;50.930;6.926;2022-11-15T16:17:25;14.90;95.90
1165;DHT22;571;50.930;6.926;2022-11-15T16:19:52;14.90;95.90
1165;DHT22;571;50.930;6.926;2022-11-15T16:22:21;15.00;95.90
1165;DHT22;571;50.930;6.926;2022-11-15T16:24:47;14.90;96.00
1165;DHT22;571;50.930;6.926;2022-11-15T16:27:15;14.90;96.00
1165;DHT22;571;50.930;6.926;2022-11-15T16:29:42;14.80;96.30
1165;DHT22;571;50.930;6.926;2022-11-15T16:32:09;14.80;96.30
1165;DHT22;571;50.930;6.926;2022-11-15T16:34:36;14.80;96.30
1165;DHT22;571;50.930;6.926;2022-11-15T16:37:04;14.70;96.40
1165;DHT22;571;50.930;6.926;2022-11-15T16:39:32;14.80;96.50
1165;DHT22;571;50.930;6.926;2022-11-15T16:41:59;14.70;96.50
1165;DHT22;571;50.930;6.926;2022-11-15T16:44:28;14.70;96.50
1165;DHT22;571;50.930;6.926;2022-11-15T16:46:54;14.80;96.30
1165;DHT22;571;50.930;6.926;2022-11-15T16:49:21;14.80;96.30
1165;DHT22;571;50.930;6.926;2022-11-15T16:51:49;14.80;96.50
1165;DHT22;571;50.930;6.926;2022-11-15T16:54:16;14.70;96.50
1165;DHT22;571;50.930;6.926;2022-11-15T16:56:44;14.70;96.70
1165;DHT22;571;50.930;6.926;2022-11-15T16:59:15;14.70;96.60
1165;DHT22;571;50.930;6.926;2022-11-15T17:01:43;14.70;96.50
1165;DHT22;571;50.930;6.926;2022-11-15T17:04:15;14.80;96.40
1165;DHT22;571;50.930;6.926;2022-11-15T17:06:43;14.80;96.40
1165;DHT22;571;50.930;6.926;2022-11-15T17:09:12;14.70;96.40
1165;DHT22;571;50.930;6.926;2022-11-15T17:11:40;14.70;96.70
1165;DHT22;571;50.930;6.926;2022-11-15T17:14:08;14.70;96.70
1165;DHT22;571;50.930;6.926;2022-11-15T17:16:35;14.70;96.60
1165;DHT22;571;50.930;6.926;2022-11-15T17:19:10;14.70;96.50
1165;DHT22;571;50.930;6.926;2022-11-15T17:21:37;14.70;96.60
1165;DHT22;571;50.930;6.926;2022-11-15T17:24:04;14.70;96.70
1165;DHT22;571;50.930;6.926;2022-11-15T17:26:31;14.60;96.80
1165;DHT22;571;50.930;6.926;2022-11-15T17:28:58;14.70;96.80
1165;DHT22;571;50.930;6.926;2022-11-15T17:31:27;14.70;96.70
1165;DHT22;571;50.930;6.926;2022-11-15T17:33:55;14.70;96.90
1165;DHT22;571;50.930;6.926;2022-11-15T17:36:21;14.70;97.00
1165;DHT22;571;50.930;6.926;2022-11-15T17:38:48;14.80;97.20
1165;DHT22;571;50.930;6.926;2022-11-15T17:41:17;14.70;97.50
1165;DHT22;571;50.930;6.926;2022-11-15T17:43:45;14.70;98.00
1165;DHT22;571;50.930;6.926;2022-11-15T17:46:14;14.60;98.20
1165;DHT22;571;50.930;6.926;2022-11-15T17:48:43;14.60;98.40
1165;DHT22;571;50.930;6.926;2022-11-15T17:51:12;14.60;98.20
1165;DHT22;571;50.930;6.926;2022-11-15T17:53:41;14.50;99.00
1165;DHT22;571;50.930;6.926;2022-11-15T17:56:09;14.40;99.10
1165;DHT22;571;50.930;6.926;2022-11-15T17:58:36;14.50;99.30
1165;DHT22;571;50.930;6.926;2022-11-15T18:01:07;14.40;99.90
1165;DHT22;571;50.930;6.926;2022-11-15T18:03:35;14.40;99.30
1165;DHT22;571;50.930;6.926;2022-11-15T18:06:05;14.50;99.50
1165;DHT22;571;50.930;6.926;2022-11-15T18:08:34;14.40;99.90
1165;DHT22;571;50.930;6.926;2022-11-15T18:11:05;14.30;99.90
1165;DHT22;571;50.930;6.926;2022-11-15T18:13:33;14.30;99.90
1165;DHT22;571;50.930;6.926;2022-11-15T18:16:01;14.40;99.90
1165;DHT22;571;50.930;6.926;2022-11-15T18:18:29;14.40;99.90
1165;DHT22;571;50.930;6.926;2022-11-15T18:21:01;14.30;99.90
1165;DHT22;571;50.930;6.926;2022-11-15T18:23:29;14.30;99.90
1165;DHT22;571;50.930;6.926;2022-11-15T18:25:56;14.30;99.90
1165;DHT22;571;50.930;6.926;2022-11-15T18:28:29;14.20;99.90
1165;DHT22;571;50.930;6.926;2022-11-15T18:31:00;14.30;99.90
1165;DHT22;571;50.930;6.926;2022-11-15T18:33:28;14.30;99.90
1165;DHT22;571;50.930;6.926;2022-11-15T18:35:59;14.20;99.90
1165;DHT22;571;50.930;6.926;2022-11-15T18:38:26;14.10;99.90
1165;DHT22;571;50.930;6.926;2022-11-15T18:40:57;14.10;99.90
1165;DHT22;571;50.930;6.926;2022-11-15T18:43:24;13.90;99.90
1165;DHT22;571;50.930;6.926;2022-11-15T18:45:50;13.90;99.90
1165;DHT22;571;50.930;6.926;2022-11-15T18:48:17;14.00;99.90
1165;DHT22;571;50.930;6.926;2022-11-15T18:50:44;13.90;99.90
1165;DHT22;571;50.930;6.926;2022-11-15T18:53:15;13.90;99.90
1165;DHT22;571;50.930;6.926;2022-11-15T18:55:41;13.90;99.90
1165;DHT22;571;50.930;6.926;2022-11-15T18:58:10;13.80;99.90
1165;DHT22;571;50.930;6.926;2022-11-15T19:00:40;13.80;99.90
1165;DHT22;571;50.930;6.926;2022-11-15T19:03:07;13.80;99.90
1165;DHT22;571;50.930;6.926;2022-11-15T19:05:41;13.80;99.90
1165;DHT22;571;50.930;6.926;2022-11-15T19:11:28;13.80;99.90
1165;DHT22;571;50.930;6.926;2022-11-15T19:20:44;13.60;99.90
1165;DHT22;571;50.930;6.926;2022-11-15T19:30:50;13.50;99.90
1165;DHT22;571;50.930;6.926;2022-11-15T19:33:28;13.50;99.90
1165;DHT22;571;50.930;6.926;2022-11-15T19:36:04;13.50;99.90
1165;DHT22;571;50.930;6.926;2022-11-15T19:38:50;13.50;99.90
1165;DHT22;571;50.930;6.926;2022-11-15T19:41:36;13.60;99.90
1165;DHT22;571;50.930;6.926;2022-11-15T19:44:40;13.60;99.90
1165;DHT22;571;50.930;6.926;2022-11-15T19:51:05;13.60;99.90
1165;DHT22;571;50.930;6.926;2022-11-15T19:55:15;13.60;99.90
1165;DHT22;571;50.930;6.926;2022-11-15T19:57:21;13.60;99.90
1165;DHT22;571;50.930;6.926;2022-11-15T20:02:02;13.60;99.90
1165;DHT22;571;50.930;6.926;2022-11-15T20:03:06;13.50;99.90
1165;DHT22;571;50.930;6.926;2022-11-15T20:05:40;13.70;99.90
1165;DHT22;571;50.930;6.926;2022-11-15T20:08:18;13.60;99.90
1165;DHT22;571;50.930;6.926;2022-11-15T20:11:06;13.60;99.90
1165;DHT22;571;50.930;6.926;2022-11-15T20:13:44;13.40;99.90
1165;DHT22;571;50.930;6.926;2022-11-15T20:16:15;13.30;99.90
1165;DHT22;571;50.930;6.926;2022-11-15T20:18:45;13.40;99.90
1165;DHT22;571;50.930;6.926;2022-11-15T20:21:13;13.30;99.90
1165;DHT22;571;50.930;6.926;2022-11-15T20:23:47;13.40;99.90
1165;DHT22;571;50.930;6.926;2022-11-15T20:26:27;13.30;99.90
1165;DHT22;571;50.930;6.926;2022-11-15T20:29:22;13.40;99.90
1165;DHT22;571;50.930;6.926;2022-11-15T20:32:04;13.30;99.90
1165;DHT22;571;50.930;6.926;2022-11-15T20:37:17;13.40;99.90
1165;DHT22;571;50.930;6.926;2022-11-15T20:39:57;13.40;99.90
1165;DHT22;571;50.930;6.926;2022-11-15T20:42:41;13.30;99.90
1165;DHT22;571;50.930;6.926;2022-11-15T20:45:08;13.30;99.90
1165;DHT22;571;50.930;6.926;2022-11-15T20:47:35;13.30;99.90
1165;DHT22;571;50.930;6.926;2022-11-15T20:50:03;13.30;99.90
1165;DHT22;571;50.930;6.926;2022-11-15T20:52:31;13.10;99.90
1165;DHT22;571;50.930;6.926;2022-11-15T20:54:58;13.10;99.90